createdAt,value
2017-12-21T00:01:21.372Z,3.40
2017-12-21T00:03:49.662Z,3.30
2017-12-21T00:06:17.960Z,3.30
2017-12-21T00:08:46.249Z,3.30
2017-12-21T00:11:14.939Z,3.40
2017-12-21T00:13:43.250Z,3.40
2017-12-21T00:16:11.980Z,3.40
2017-12-21T00:18:41.106Z,3.40
2017-12-21T00:21:09.987Z,3.40
2017-12-21T00:23:38.909Z,3.50
2017-12-21T00:26:07.591Z,3.50
2017-12-21T00:28:36.385Z,3.50
2017-12-21T00:31:05.586Z,3.50
2017-12-21T00:33:34.586Z,3.40
2017-12-21T00:36:03.753Z,3.40
2017-12-21T00:38:32.691Z,3.40
2017-12-21T00:41:01.549Z,3.40
2017-12-21T00:43:30.700Z,3.40
2017-12-21T00:46:11.418Z,3.40
2017-12-21T00:48:40.240Z,3.40
2017-12-21T00:51:08.955Z,3.40
2017-12-21T00:53:38.020Z,3.30
2017-12-21T00:56:06.641Z,3.30
2017-12-21T00:58:35.188Z,3.40
2017-12-21T01:01:04.174Z,3.40
2017-12-21T01:03:33.589Z,3.40
2017-12-21T01:06:02.669Z,3.50
2017-12-21T01:08:32.412Z,3.50
2017-12-21T01:11:02.570Z,3.40
2017-12-21T01:13:32.991Z,3.40
2017-12-21T01:16:03.048Z,3.30
2017-12-21T01:18:32.241Z,3.30
2017-12-21T01:21:01.116Z,3.30
2017-12-21T01:23:30.061Z,3.40
2017-12-21T01:25:58.983Z,3.40
2017-12-21T01:28:27.575Z,3.40
2017-12-21T01:30:56.957Z,3.40
2017-12-21T01:33:26.091Z,3.50
2017-12-21T01:35:55.208Z,3.50
2017-12-21T01:38:23.485Z,3.60
2017-12-21T01:40:51.809Z,3.50
2017-12-21T01:43:20.975Z,3.50
2017-12-21T01:45:49.355Z,3.50
2017-12-21T01:48:18.501Z,3.50
2017-12-21T01:50:46.857Z,3.50
2017-12-21T01:53:15.980Z,3.60
2017-12-21T01:55:44.562Z,3.60
2017-12-21T01:58:13.795Z,3.60
2017-12-21T02:00:42.079Z,3.70
2017-12-21T02:03:11.340Z,3.60
2017-12-21T02:05:40.207Z,3.70
2017-12-21T02:08:08.892Z,3.60
2017-12-21T02:10:37.842Z,3.60
2017-12-21T02:13:06.638Z,3.70
2017-12-21T02:15:35.848Z,3.60
2017-12-21T02:18:04.642Z,3.50
2017-12-21T02:20:34.310Z,3.60
2017-12-21T02:23:03.068Z,3.50
2017-12-21T02:25:32.337Z,3.60
2017-12-21T02:28:01.624Z,3.70
2017-12-21T02:30:31.342Z,3.70
2017-12-21T02:33:00.647Z,3.70
2017-12-21T02:35:29.841Z,3.80
2017-12-21T02:37:59.461Z,3.80
2017-12-21T02:40:27.927Z,3.80
2017-12-21T02:42:57.059Z,3.90
2017-12-21T02:45:26.359Z,3.90
2017-12-21T02:47:55.714Z,3.90
2017-12-21T02:50:24.014Z,3.90
2017-12-21T02:52:52.326Z,3.90
2017-12-21T02:55:21.382Z,3.90
2017-12-21T02:57:49.672Z,3.90
2017-12-21T03:00:17.964Z,3.90
2017-12-21T03:02:46.239Z,3.90
2017-12-21T03:05:14.897Z,3.90
2017-12-21T03:07:43.181Z,3.90
2017-12-21T03:10:11.820Z,4.00
2017-12-21T03:12:41.481Z,4.00
2017-12-21T03:15:10.389Z,4.00
2017-12-21T03:17:39.442Z,4.00
2017-12-21T03:20:07.992Z,4.00
2017-12-21T03:22:37.632Z,4.10
2017-12-21T03:25:06.498Z,4.10
2017-12-21T03:27:36.537Z,4.00
2017-12-21T03:30:05.139Z,4.00
2017-12-21T03:32:34.914Z,4.00
2017-12-21T03:35:03.816Z,4.00
2017-12-21T03:37:32.918Z,4.00
2017-12-21T03:40:02.721Z,4.10
2017-12-21T03:42:33.032Z,4.10
2017-12-21T03:45:02.317Z,4.10
2017-12-21T03:47:31.498Z,4.00
2017-12-21T03:50:01.455Z,4.10
2017-12-21T03:52:31.834Z,4.10
2017-12-21T03:55:01.149Z,4.10
2017-12-21T03:57:29.940Z,4.10
2017-12-21T03:59:59.879Z,4.10
2017-12-21T04:02:29.162Z,4.10
2017-12-21T04:04:57.684Z,4.10
2017-12-21T04:07:26.073Z,4.10
2017-12-21T04:09:54.352Z,4.10
2017-12-21T04:12:22.645Z,4.10
2017-12-21T04:14:51.050Z,4.10
2017-12-21T04:17:19.281Z,4.10
2017-12-21T04:19:48.327Z,4.00
2017-12-21T04:22:16.629Z,4.00
2017-12-21T04:24:44.907Z,4.00
2017-12-21T04:27:13.724Z,4.00
2017-12-21T04:29:42.827Z,4.00
2017-12-21T04:32:11.692Z,4.00
2017-12-21T04:34:40.314Z,4.00
2017-12-21T04:37:09.146Z,3.90
2017-12-21T04:39:37.975Z,3.90
2017-12-21T04:42:06.575Z,3.90
2017-12-21T04:44:35.406Z,3.90
2017-12-21T04:47:04.714Z,3.90
2017-12-21T04:49:34.156Z,3.90
2017-12-21T04:52:03.457Z,4.00
2017-12-21T04:54:32.852Z,4.00
2017-12-21T04:57:01.532Z,4.00
2017-12-21T04:59:31.267Z,3.90
2017-12-21T05:02:00.271Z,3.90
2017-12-21T05:04:28.730Z,4.00
2017-12-21T05:06:57.366Z,4.00
2017-12-21T05:09:25.667Z,4.00
2017-12-21T05:11:53.946Z,4.00
2017-12-21T05:14:22.226Z,4.00
2017-12-21T05:16:51.301Z,4.00
2017-12-21T05:19:19.590Z,3.90
2017-12-21T05:21:47.880Z,4.00
2017-12-21T05:24:16.184Z,4.00
2017-12-21T05:26:45.236Z,3.90
2017-12-21T05:29:14.214Z,4.00
2017-12-21T05:31:43.375Z,4.00
2017-12-21T05:34:12.007Z,3.90
2017-12-21T05:36:40.437Z,3.90
2017-12-21T05:39:09.367Z,3.90
2017-12-21T05:41:38.514Z,3.90
2017-12-21T05:44:08.082Z,3.90
2017-12-21T05:46:37.523Z,4.00
2017-12-21T05:49:06.410Z,4.00
2017-12-21T05:51:35.427Z,4.00
2017-12-21T05:54:04.851Z,4.00
2017-12-21T05:56:34.013Z,3.90
2017-12-21T05:59:04.256Z,4.00
2017-12-21T06:01:33.513Z,4.00
2017-12-21T06:04:02.768Z,3.90
2017-12-21T06:06:32.046Z,3.90
2017-12-21T06:09:01.785Z,3.80
2017-12-21T06:11:31.291Z,3.80
2017-12-21T06:14:00.476Z,3.90
2017-12-21T06:16:29.581Z,3.80
2017-12-21T06:18:58.369Z,3.80
2017-12-21T06:21:27.608Z,3.70
2017-12-21T06:23:56.324Z,3.70
2017-12-21T06:26:24.727Z,3.80
2017-12-21T06:28:53.036Z,3.80
2017-12-21T06:31:22.088Z,3.80
2017-12-21T06:33:50.384Z,3.80
2017-12-21T06:36:18.668Z,3.80
2017-12-21T06:38:46.975Z,3.80
2017-12-21T06:41:15.805Z,3.80
2017-12-21T06:43:45.123Z,3.70
2017-12-21T06:46:13.696Z,3.70
2017-12-21T06:48:42.557Z,3.70
2017-12-21T06:51:10.964Z,3.70
2017-12-21T06:53:39.576Z,3.70
2017-12-21T06:56:08.555Z,3.70
2017-12-21T06:58:37.456Z,3.70
2017-12-21T07:01:05.962Z,3.80
2017-12-21T07:03:35.221Z,3.80
2017-12-21T07:06:04.286Z,3.80
2017-12-21T07:08:34.098Z,3.70
2017-12-21T07:11:04.671Z,3.70
2017-12-21T07:13:34.385Z,3.70
2017-12-21T07:16:03.731Z,3.70
2017-12-21T07:18:32.746Z,3.80
2017-12-21T07:21:02.191Z,3.80
2017-12-21T07:23:31.782Z,3.80
2017-12-21T07:26:00.938Z,3.80
2017-12-21T07:28:30.081Z,3.80
2017-12-21T07:30:59.958Z,3.80
2017-12-21T07:33:28.756Z,3.80
2017-12-21T07:35:57.741Z,3.80
2017-12-21T07:38:27.879Z,3.80
2017-12-21T07:40:56.345Z,3.80
2017-12-21T07:43:24.667Z,3.70
2017-12-21T07:45:53.697Z,3.70
2017-12-21T07:48:21.998Z,3.70
2017-12-21T07:50:50.273Z,3.70
2017-12-21T07:53:18.834Z,3.80
2017-12-21T07:55:47.258Z,3.70
2017-12-21T07:58:15.590Z,3.70
2017-12-21T08:00:44.335Z,3.70
2017-12-21T08:03:12.868Z,3.70
2017-12-21T08:05:42.210Z,3.80
2017-12-21T08:08:11.031Z,3.80
2017-12-21T08:10:40.656Z,3.80
2017-12-21T08:13:09.569Z,3.80
2017-12-21T08:15:40.365Z,3.70
2017-12-21T08:18:09.623Z,3.70
2017-12-21T08:20:39.057Z,3.70
2017-12-21T08:23:08.221Z,3.70
2017-12-21T08:25:37.100Z,3.80
2017-12-21T08:28:06.312Z,3.70
2017-12-21T08:30:35.673Z,3.80
2017-12-21T08:33:05.562Z,3.80
2017-12-21T08:35:35.110Z,3.80
2017-12-21T08:38:04.359Z,3.80
2017-12-21T08:40:34.112Z,3.80
2017-12-21T08:43:03.716Z,3.80
2017-12-21T08:45:33.165Z,3.80
2017-12-21T08:48:02.512Z,3.80
2017-12-21T08:50:32.410Z,3.80
2017-12-21T08:53:02.144Z,3.80
2017-12-21T08:55:31.952Z,3.80
2017-12-21T08:58:02.020Z,3.90
2017-12-21T09:00:32.020Z,3.90
2017-12-21T09:03:02.505Z,3.80
2017-12-21T09:05:34.235Z,3.90
2017-12-21T09:08:04.801Z,3.90
2017-12-21T09:10:34.165Z,3.90
2017-12-21T09:13:03.593Z,3.90
2017-12-21T09:15:33.200Z,3.90
2017-12-21T09:18:03.522Z,4.00
2017-12-21T09:20:32.998Z,3.90
2017-12-21T09:23:03.481Z,4.00
2017-12-21T09:25:33.007Z,4.00
2017-12-21T09:28:03.753Z,4.00
2017-12-21T09:30:33.354Z,4.00
2017-12-21T09:33:05.465Z,4.00
2017-12-21T09:35:34.561Z,4.00
2017-12-21T09:38:04.562Z,4.00
2017-12-21T09:40:34.050Z,4.00
2017-12-21T09:43:03.606Z,4.10
2017-12-21T09:45:32.847Z,4.10
2017-12-21T09:48:02.730Z,4.10
2017-12-21T09:50:32.771Z,4.10
2017-12-21T09:53:02.737Z,4.10
2017-12-21T09:55:32.996Z,4.20
2017-12-21T09:58:03.829Z,4.10
2017-12-21T10:00:33.255Z,4.20
2017-12-21T10:03:02.888Z,4.20
2017-12-21T10:05:32.286Z,4.20
2017-12-21T10:08:01.789Z,4.20
2017-12-21T10:10:31.042Z,4.20
2017-12-21T10:12:59.786Z,4.20
2017-12-21T10:15:29.351Z,4.20
2017-12-21T10:17:58.269Z,4.20
2017-12-21T10:20:27.315Z,4.20
2017-12-21T10:22:55.756Z,4.20
2017-12-21T10:25:24.036Z,4.20
2017-12-21T10:27:52.418Z,4.20
2017-12-21T10:30:20.703Z,4.20
2017-12-21T10:32:48.997Z,4.20
2017-12-21T10:35:17.322Z,4.20
2017-12-21T10:37:46.196Z,4.30
2017-12-21T10:40:14.484Z,4.30
2017-12-21T10:42:44.105Z,4.30
2017-12-21T10:45:13.197Z,4.40
2017-12-21T10:47:42.342Z,4.40
2017-12-21T10:50:11.482Z,4.40
2017-12-21T10:52:39.931Z,4.40
2017-12-21T10:55:09.687Z,4.40
2017-12-21T10:57:38.924Z,4.40
2017-12-21T11:00:07.875Z,4.50
2017-12-21T11:02:37.462Z,4.50
2017-12-21T11:05:07.460Z,4.50
2017-12-21T11:07:37.150Z,4.50
2017-12-21T11:10:07.137Z,4.50
2017-12-21T11:12:36.129Z,4.60
2017-12-21T11:15:05.558Z,4.60
2017-12-21T11:17:36.726Z,4.60
2017-12-21T11:20:07.068Z,4.70
2017-12-21T11:22:35.778Z,4.70
2017-12-21T11:25:04.986Z,4.70
2017-12-21T11:27:35.864Z,4.70
2017-12-21T11:30:05.203Z,4.80
2017-12-21T11:32:34.283Z,4.70
2017-12-21T11:35:04.339Z,4.70
2017-12-21T11:37:34.930Z,4.70
2017-12-21T11:40:04.064Z,4.70
2017-12-21T11:42:33.256Z,4.60
2017-12-21T11:45:02.810Z,4.70
2017-12-21T11:47:32.351Z,4.70
2017-12-21T11:50:02.289Z,4.60
2017-12-21T11:52:31.393Z,4.70
2017-12-21T11:55:01.921Z,4.70
2017-12-21T11:57:31.641Z,4.70
2017-12-21T12:00:01.207Z,4.70
2017-12-21T12:02:29.579Z,4.80
2017-12-21T12:04:58.694Z,4.70
2017-12-21T12:07:27.300Z,4.70
2017-12-21T12:09:55.608Z,4.70
2017-12-21T12:12:23.881Z,4.70
2017-12-21T12:14:52.233Z,4.70
2017-12-21T12:17:20.521Z,4.70
2017-12-21T12:19:48.800Z,4.70
2017-12-21T12:22:17.128Z,4.70
2017-12-21T12:24:46.493Z,4.70
2017-12-21T12:27:14.788Z,4.70
2017-12-21T12:29:43.499Z,4.80
2017-12-21T12:32:11.978Z,4.80
2017-12-21T12:34:41.100Z,4.80
2017-12-21T12:37:10.629Z,4.90
2017-12-21T12:39:39.724Z,4.90
2017-12-21T12:42:09.371Z,4.90
2017-12-21T12:44:37.946Z,4.80
2017-12-21T12:47:06.864Z,4.90
2017-12-21T12:49:35.700Z,4.90
2017-12-21T12:52:05.071Z,4.90
2017-12-21T12:54:34.446Z,4.90
2017-12-21T12:57:04.181Z,4.90
2017-12-21T12:59:33.668Z,4.90
2017-12-21T13:02:03.938Z,4.90
2017-12-21T13:04:33.240Z,4.90
2017-12-21T13:07:03.228Z,4.90
2017-12-21T13:09:33.846Z,4.90
2017-12-21T13:12:04.161Z,4.90
2017-12-21T13:14:33.463Z,4.90
2017-12-21T13:17:02.739Z,4.90
2017-12-21T13:19:31.932Z,4.90
2017-12-21T13:22:01.200Z,5.00
2017-12-21T13:24:31.713Z,5.10
2017-12-21T13:27:01.515Z,5.10
2017-12-21T13:29:31.182Z,4.90
2017-12-21T13:32:00.421Z,4.90
2017-12-21T13:34:30.155Z,4.90
2017-12-21T13:36:59.474Z,4.90
2017-12-21T13:39:28.560Z,4.90
2017-12-21T13:41:57.281Z,5.00
2017-12-21T13:44:25.952Z,5.00
2017-12-21T13:46:54.345Z,5.00
2017-12-21T13:49:22.646Z,4.90
2017-12-21T13:51:50.910Z,4.90
2017-12-21T13:54:19.200Z,4.80
2017-12-21T13:56:47.539Z,4.90
2017-12-21T13:59:15.960Z,4.90
2017-12-21T14:01:45.010Z,5.00
2017-12-21T14:04:14.203Z,5.00
2017-12-21T14:06:42.837Z,5.00
2017-12-21T14:09:11.674Z,5.00
2017-12-21T14:11:40.188Z,4.90
2017-12-21T14:14:09.021Z,4.90
2017-12-21T14:16:38.701Z,4.90
2017-12-21T14:19:07.714Z,4.90
2017-12-21T14:21:37.707Z,4.90
2017-12-21T14:24:07.070Z,4.90
2017-12-21T14:26:38.459Z,4.90
2017-12-21T14:29:08.742Z,4.80
2017-12-21T14:31:37.747Z,4.80
2017-12-21T14:34:08.949Z,4.80
2017-12-21T14:36:37.900Z,4.80
2017-12-21T14:39:07.050Z,4.90
2017-12-21T14:41:36.546Z,4.90
2017-12-21T14:44:06.960Z,5.00
2017-12-21T14:46:37.823Z,4.90
2017-12-21T14:49:06.774Z,4.90
2017-12-21T14:51:36.725Z,5.00
2017-12-21T14:54:05.855Z,5.00
2017-12-21T14:56:35.693Z,4.90
2017-12-21T14:59:05.190Z,4.90
2017-12-21T15:01:34.875Z,4.90
2017-12-21T15:04:04.382Z,4.90
2017-12-21T15:06:33.401Z,4.90
2017-12-21T15:09:03.484Z,4.80
2017-12-21T15:11:33.936Z,4.80
2017-12-21T15:14:04.836Z,4.80
2017-12-21T15:16:34.935Z,4.70
2017-12-21T15:19:05.316Z,4.70
2017-12-21T15:21:35.626Z,4.70
2017-12-21T15:24:07.139Z,4.80
2017-12-21T15:26:36.504Z,4.80
2017-12-21T15:29:06.111Z,4.80
2017-12-21T15:31:35.326Z,4.80
2017-12-21T15:34:05.768Z,4.90
2017-12-21T15:36:35.780Z,4.90
2017-12-21T15:39:06.373Z,4.90
2017-12-21T15:41:36.702Z,4.90
2017-12-21T15:44:07.204Z,4.80
2017-12-21T15:46:37.532Z,4.80
2017-12-21T15:49:07.148Z,4.80
2017-12-21T15:51:36.642Z,4.90
2017-12-21T15:54:06.473Z,4.80
2017-12-21T15:56:36.012Z,4.80
2017-12-21T15:59:05.740Z,4.80
2017-12-21T16:01:36.166Z,4.70
2017-12-21T16:04:06.179Z,4.70
2017-12-21T16:06:35.940Z,4.70
2017-12-21T16:09:05.622Z,4.70
2017-12-21T16:11:35.802Z,4.70
2017-12-21T16:14:05.910Z,4.70
2017-12-21T16:16:37.263Z,4.60
2017-12-21T16:19:06.551Z,4.60
2017-12-21T16:21:37.447Z,4.70
2017-12-21T16:24:06.971Z,4.70
2017-12-21T16:26:36.519Z,4.70
2017-12-21T16:29:05.542Z,4.70
2017-12-21T16:31:37.523Z,4.70
2017-12-21T16:34:06.859Z,4.70
2017-12-21T16:36:36.073Z,4.70
2017-12-21T16:39:05.444Z,4.60
2017-12-21T16:41:35.949Z,4.60
2017-12-21T16:44:06.246Z,4.60
2017-12-21T16:46:36.022Z,4.60
2017-12-21T16:49:06.383Z,4.60
2017-12-21T16:51:36.046Z,4.50
2017-12-21T16:54:06.806Z,4.60
2017-12-21T16:56:37.069Z,4.60
2017-12-21T16:59:06.400Z,4.60
2017-12-21T17:01:35.727Z,4.60
2017-12-21T17:04:06.340Z,4.60
2017-12-21T17:06:36.664Z,4.60
2017-12-21T17:09:06.820Z,4.70
2017-12-21T17:11:36.988Z,4.60
2017-12-21T17:14:07.104Z,4.70
2017-12-21T17:16:38.486Z,4.80
2017-12-21T17:19:07.561Z,4.70
2017-12-21T17:21:37.473Z,4.70
2017-12-21T17:24:07.229Z,4.60
2017-12-21T17:26:36.867Z,4.60
2017-12-21T17:29:05.836Z,4.70
2017-12-21T17:31:36.052Z,4.60
2017-12-21T17:34:05.757Z,4.70
2017-12-21T17:36:35.375Z,4.60
2017-12-21T17:39:04.231Z,4.70
2017-12-21T17:41:32.951Z,4.70
2017-12-21T17:44:02.555Z,4.60
2017-12-21T17:46:31.492Z,4.60
2017-12-21T17:49:00.124Z,4.60
2017-12-21T17:51:29.780Z,4.70
2017-12-21T17:53:58.166Z,4.70
2017-12-21T17:56:26.602Z,4.60
2017-12-21T17:58:54.932Z,4.60
2017-12-21T18:01:23.272Z,4.70
2017-12-21T18:03:51.560Z,4.50
2017-12-21T18:06:19.855Z,4.50
2017-12-21T18:08:48.211Z,4.40
2017-12-21T18:11:16.535Z,4.50
2017-12-21T18:13:44.838Z,4.50
2017-12-21T18:16:13.192Z,4.50
2017-12-21T18:18:41.712Z,4.40
2017-12-21T18:21:10.238Z,4.40
2017-12-21T18:23:39.513Z,4.40
2017-12-21T18:26:08.770Z,4.40
2017-12-21T18:28:37.550Z,4.40
2017-12-21T18:31:06.456Z,4.40
2017-12-21T18:33:37.745Z,4.50
2017-12-21T18:36:08.269Z,4.50
2017-12-21T18:38:37.491Z,4.40
2017-12-21T18:41:07.225Z,4.50
2017-12-21T18:43:37.486Z,4.50
2017-12-21T18:46:07.486Z,4.50
2017-12-21T18:48:37.722Z,4.50
2017-12-21T18:51:07.830Z,4.60
2017-12-21T18:53:36.953Z,4.60
2017-12-21T18:56:07.127Z,4.60
2017-12-21T18:58:37.942Z,4.60
2017-12-21T19:01:08.072Z,4.60
2017-12-21T19:03:37.684Z,4.60
2017-12-21T19:06:07.868Z,4.60
2017-12-21T19:08:38.132Z,4.70
2017-12-21T19:11:08.462Z,4.70
2017-12-21T19:13:40.079Z,4.70
2017-12-21T19:16:09.606Z,4.80
2017-12-21T19:18:39.487Z,4.80
2017-12-21T19:21:10.622Z,4.80
2017-12-21T19:23:40.091Z,4.90
2017-12-21T19:26:10.217Z,4.80
2017-12-21T19:28:40.270Z,4.80
2017-12-21T19:31:09.245Z,4.80
2017-12-21T19:33:40.323Z,4.80
2017-12-21T19:36:11.862Z,4.70
2017-12-21T19:38:41.479Z,4.70
2017-12-21T19:41:10.537Z,4.70
2017-12-21T19:43:39.863Z,4.70
2017-12-21T19:46:08.577Z,4.70
2017-12-21T19:48:37.859Z,4.60
2017-12-21T19:51:06.540Z,4.60
2017-12-21T19:53:35.322Z,4.60
2017-12-21T19:56:05.532Z,4.60
2017-12-21T19:58:36.000Z,4.70
2017-12-21T20:01:05.177Z,4.70
2017-12-21T20:03:35.565Z,4.80
2017-12-21T20:06:06.543Z,4.70
2017-12-21T20:08:37.095Z,4.70
2017-12-21T20:11:06.460Z,4.70
2017-12-21T20:13:35.755Z,4.70
2017-12-21T20:16:05.133Z,4.70
2017-12-21T20:18:33.633Z,4.70
2017-12-21T20:21:02.416Z,4.80
2017-12-21T20:23:32.338Z,4.80
2017-12-21T20:26:02.172Z,4.80
2017-12-21T20:28:31.550Z,4.80
2017-12-21T20:31:00.432Z,4.80
2017-12-21T20:33:29.457Z,4.70
2017-12-21T20:35:58.031Z,4.70
2017-12-21T20:38:26.692Z,4.70
2017-12-21T20:40:55.026Z,4.60
2017-12-21T20:43:23.345Z,4.60
2017-12-21T20:45:51.876Z,4.60
2017-12-21T20:48:20.379Z,4.60
2017-12-21T20:50:48.683Z,4.60
2017-12-21T20:53:16.979Z,4.60
2017-12-21T20:55:46.303Z,4.50
2017-12-21T20:58:14.770Z,4.50
2017-12-21T21:00:44.246Z,4.60
2017-12-21T21:03:13.040Z,4.50
2017-12-21T21:05:42.446Z,4.60
2017-12-21T21:08:11.120Z,4.60
2017-12-21T21:10:42.895Z,4.60
2017-12-21T21:13:11.669Z,4.60
2017-12-21T21:15:40.078Z,4.60
2017-12-21T21:18:08.764Z,4.50
2017-12-21T21:20:37.585Z,4.50
2017-12-21T21:23:06.378Z,4.40
2017-12-21T21:25:36.126Z,4.40
2017-12-21T21:28:07.053Z,4.40
2017-12-21T21:30:41.725Z,4.50
2017-12-21T21:33:10.995Z,4.40
2017-12-21T21:35:41.136Z,4.40
2017-12-21T21:38:10.861Z,4.40
2017-12-21T21:40:39.902Z,4.40
2017-12-21T21:43:09.385Z,4.40
2017-12-21T21:45:40.029Z,4.50
2017-12-21T21:48:09.479Z,4.50
2017-12-21T21:50:38.834Z,4.50
2017-12-21T21:53:08.531Z,4.50
2017-12-21T21:55:39.098Z,4.40
2017-12-21T21:58:09.991Z,4.40
2017-12-21T22:00:40.400Z,4.40
2017-12-21T22:03:10.407Z,4.40
2017-12-21T22:05:39.167Z,4.40
2017-12-21T22:08:08.266Z,4.50
2017-12-21T22:10:37.466Z,4.50
2017-12-21T22:13:06.495Z,4.40
2017-12-21T22:15:36.273Z,4.40
2017-12-21T22:18:05.799Z,4.40
2017-12-21T22:20:35.608Z,4.40
2017-12-21T22:23:05.100Z,4.40
2017-12-21T22:25:34.257Z,4.40
2017-12-21T22:28:04.215Z,4.40
2017-12-21T22:30:34.552Z,4.30
2017-12-21T22:33:03.936Z,4.30
2017-12-21T22:35:33.902Z,4.30
2017-12-21T22:38:04.490Z,4.30
2017-12-21T22:40:34.870Z,4.30
2017-12-21T22:43:03.802Z,4.30
2017-12-21T22:45:32.416Z,4.30
2017-12-21T22:48:02.357Z,4.20
2017-12-21T22:50:32.552Z,4.20
2017-12-21T22:53:03.844Z,4.20
2017-12-21T22:55:32.871Z,4.20
2017-12-21T22:58:03.128Z,4.20
2017-12-21T23:00:34.198Z,4.20
2017-12-21T23:03:04.211Z,4.20
2017-12-21T23:05:34.457Z,4.20
2017-12-21T23:08:03.974Z,4.10
2017-12-21T23:10:33.321Z,4.00
2017-12-21T23:13:03.158Z,4.00
2017-12-21T23:15:32.933Z,4.00
2017-12-21T23:18:02.531Z,3.90
2017-12-21T23:20:32.068Z,3.90
2017-12-21T23:23:01.730Z,3.90
2017-12-21T23:25:31.542Z,3.80
2017-12-21T23:28:01.895Z,3.80
2017-12-21T23:30:32.355Z,3.90
2017-12-21T23:33:02.906Z,3.90
2017-12-21T23:35:33.368Z,3.90
2017-12-21T23:38:04.353Z,3.80
2017-12-21T23:40:34.613Z,3.80
2017-12-21T23:43:04.963Z,3.90
2017-12-21T23:45:34.412Z,3.90
2017-12-21T23:48:03.063Z,3.90
2017-12-21T23:50:31.715Z,4.00
2017-12-21T23:53:00.440Z,4.00
2017-12-21T23:55:29.759Z,4.00
2017-12-21T23:57:58.147Z,4.00
